Time;durP1;ratioP1;P1;durP2;ratioP2;P2;SDS_P1;SDS_P2;PMS_P1;PMS_P2;Temp;Humidity;BMP_temperature;BMP_pressure;BME280_temperature;BME280_humidity;BME280_pressure;Samples;Min_cycle;Max_cycle;Signal;HPM_P1;HPM_P2
2023/12/26 00:00:52;;;;;;;7.17;1.23;;;8.40;99.90;;;;;;5051091;28;20838;-73
2023/12/26 00:03:22;;;;;;;6.97;1.13;;;8.50;99.90;;;;;;5054175;28;20451;-73
2023/12/26 00:05:50;;;;;;;9.03;1.70;;;8.50;99.90;;;;;;5053610;28;20832;-74
2023/12/26 00:08:18;;;;;;;8.43;1.40;;;8.40;99.90;;;;;;5052118;28;20476;-72
2023/12/26 00:10:46;;;;;;;8.60;1.70;;;8.50;99.90;;;;;;5043190;28;20441;-74
2023/12/26 00:13:14;;;;;;;9.87;1.70;;;8.50;99.90;;;;;;5051562;28;20482;-75
2023/12/26 00:15:42;;;;;;;8.97;2.00;;;8.60;99.90;;;;;;5046974;28;20444;-72
2023/12/26 00:18:10;;;;;;;7.83;1.87;;;8.70;99.90;;;;;;5049916;28;20888;-73
2023/12/26 00:20:43;;;;;;;8.40;1.40;;;8.80;99.90;;;;;;5034601;28;20477;-73
2023/12/26 00:23:11;;;;;;;8.57;1.37;;;8.90;99.90;;;;;;5043420;28;20786;-71
2023/12/26 00:25:39;;;;;;;7.40;1.20;;;8.90;99.90;;;;;;5053019;28;21165;-72
2023/12/26 00:28:07;;;;;;;9.10;1.50;;;8.90;99.90;;;;;;5051399;28;21000;-72
2023/12/26 00:30:35;;;;;;;7.50;1.43;;;8.90;99.90;;;;;;5049517;28;20457;-71
2023/12/26 00:33:04;;;;;;;7.93;2.17;;;8.90;99.90;;;;;;5048823;28;20480;-73
2023/12/26 00:35:32;;;;;;;7.97;1.60;;;8.90;99.90;;;;;;5047405;28;20543;-71
2023/12/26 00:38:02;;;;;;;7.47;1.00;;;8.90;99.90;;;;;;5052156;28;20559;-71
2023/12/26 00:40:30;;;;;;;8.23;1.20;;;8.90;99.90;;;;;;5047297;28;20463;-71
2023/12/26 00:42:58;;;;;;;8.77;1.20;;;8.90;99.90;;;;;;5053789;28;20445;-73
2023/12/26 00:45:26;;;;;;;13.97;1.47;;;9.00;99.90;;;;;;5038502;28;20450;-72
2023/12/26 00:47:54;;;;;;;8.43;1.67;;;9.00;99.90;;;;;;5049331;28;20684;-71
2023/12/26 00:50:22;;;;;;;8.60;1.97;;;9.00;99.90;;;;;;5047717;28;20448;-72
2023/12/26 00:52:51;;;;;;;7.53;1.57;;;9.00;99.90;;;;;;5047685;28;20531;-71
2023/12/26 00:55:20;;;;;;;7.23;1.30;;;9.00;99.90;;;;;;5040322;28;20540;-71
2023/12/26 00:57:48;;;;;;;7.10;1.57;;;9.10;99.90;;;;;;5045876;28;20529;-73
2023/12/26 01:00:17;;;;;;;6.87;1.27;;;9.00;99.90;;;;;;5049951;28;20450;-72
2023/12/26 01:02:45;;;;;;;7.00;1.23;;;9.00;99.90;;;;;;5036008;28;20445;-72
2023/12/26 01:05:13;;;;;;;9.07;1.20;;;9.00;99.90;;;;;;5042736;28;20444;-70
2023/12/26 01:07:42;;;;;;;6.80;1.20;;;9.00;99.90;;;;;;5044560;28;21001;-72
2023/12/26 01:10:10;;;;;;;6.33;1.27;;;9.00;99.90;;;;;;5037209;28;20536;-74
2023/12/26 01:12:39;;;;;;;7.13;1.30;;;9.00;99.90;;;;;;5046634;28;20553;-74
2023/12/26 01:15:08;;;;;;;7.37;1.00;;;8.90;99.90;;;;;;5046426;28;20542;-71
2023/12/26 01:17:36;;;;;;;7.30;1.07;;;9.00;99.90;;;;;;5044600;28;20481;-71
2023/12/26 01:20:05;;;;;;;6.80;1.00;;;9.00;99.90;;;;;;5051508;28;20523;-76
2023/12/26 01:22:33;;;;;;;7.60;1.30;;;9.00;99.90;;;;;;5039779;28;20462;-72
2023/12/26 01:25:02;;;;;;;9.13;1.30;;;8.90;99.90;;;;;;5034853;28;20485;-72
2023/12/26 01:27:30;;;;;;;7.30;1.57;;;8.90;99.90;;;;;;5042341;28;92859;-73
2023/12/26 01:30:01;;;;;;;8.30;1.10;;;8.90;99.90;;;;;;5044817;28;20506;-74
2023/12/26 01:32:30;;;;;;;7.27;1.47;;;8.80;99.90;;;;;;5046291;28;20449;-70
2023/12/26 01:34:58;;;;;;;6.90;1.30;;;8.70;99.90;;;;;;5043265;28;20486;-73
2023/12/26 01:37:26;;;;;;;7.43;1.37;;;8.70;99.90;;;;;;5046562;28;20505;-72
2023/12/26 01:39:54;;;;;;;7.50;1.20;;;8.60;99.90;;;;;;5037854;28;20974;-73
2023/12/26 01:42:22;;;;;;;7.43;1.20;;;8.70;99.90;;;;;;5062084;28;20452;-68
2023/12/26 01:44:50;;;;;;;6.83;1.30;;;8.70;99.90;;;;;;5055050;28;20449;-72
2023/12/26 01:47:20;;;;;;;8.43;1.70;;;8.70;99.90;;;;;;5046998;28;20485;-70
2023/12/26 01:49:48;;;;;;;8.27;1.20;;;8.60;99.90;;;;;;5048006;28;20969;-69
2023/12/26 01:52:20;;;;;;;6.80;1.20;;;8.70;99.90;;;;;;5047138;28;20445;-70
2023/12/26 01:54:48;;;;;;;6.80;1.37;;;8.70;99.90;;;;;;5047343;28;21068;-71
2023/12/26 01:57:16;;;;;;;6.60;1.10;;;8.70;99.90;;;;;;5047870;28;20450;-71
2023/12/26 01:59:44;;;;;;;7.27;1.30;;;8.70;99.90;;;;;;5047864;28;20492;-72
2023/12/26 02:02:15;;;;;;;6.50;1.00;;;8.70;99.90;;;;;;5048022;28;20445;-72
2023/12/26 02:04:44;;;;;;;7.60;1.40;;;8.80;99.90;;;;;;5047260;28;20521;-70
2023/12/26 02:07:12;;;;;;;7.03;1.20;;;8.70;99.90;;;;;;5047237;28;20471;-73
2023/12/26 02:09:41;;;;;;;8.37;1.40;;;8.80;99.90;;;;;;5047797;28;20449;-73
2023/12/26 02:12:09;;;;;;;7.57;0.97;;;8.80;99.90;;;;;;5047786;28;20544;-71
2023/12/26 02:14:38;;;;;;;6.33;1.30;;;8.80;99.90;;;;;;5047153;28;21272;-73
2023/12/26 02:17:11;;;;;;;6.50;1.00;;;8.80;99.90;;;;;;5047781;28;20445;-70
2023/12/26 02:19:42;;;;;;;6.57;1.20;;;8.80;99.90;;;;;;5047068;28;20456;-73
2023/12/26 02:22:12;;;;;;;8.53;1.30;;;8.90;99.90;;;;;;5047834;28;20450;-71
2023/12/26 02:24:42;;;;;;;9.40;1.50;;;8.80;99.90;;;;;;5046862;28;20510;-72
2023/12/26 02:27:14;;;;;;;7.60;1.13;;;8.90;99.90;;;;;;5047401;28;20500;-72
2023/12/26 02:29:44;;;;;;;6.07;1.00;;;8.90;99.90;;;;;;5047075;28;20935;-70
2023/12/26 02:32:13;;;;;;;6.70;1.10;;;8.90;99.90;;;;;;5047101;28;20450;-71
2023/12/26 02:34:41;;;;;;;6.50;1.10;;;8.90;99.90;;;;;;5046730;28;20478;-70
2023/12/26 02:37:10;;;;;;;6.30;1.20;;;8.90;99.90;;;;;;5046776;28;20490;-71
2023/12/26 02:39:43;;;;;;;6.57;1.30;;;8.90;99.90;;;;;;5046603;28;20450;-71
2023/12/26 02:42:13;;;;;;;6.70;1.00;;;8.90;99.90;;;;;;5046633;28;20580;-70
2023/12/26 02:44:43;;;;;;;6.80;1.13;;;8.80;99.90;;;;;;5046703;28;20854;-70
2023/12/26 02:47:11;;;;;;;7.00;1.17;;;8.80;99.90;;;;;;5047223;28;20458;-71
2023/12/26 02:49:39;;;;;;;8.33;1.00;;;8.90;99.90;;;;;;5046722;28;20817;-72
2023/12/26 02:52:08;;;;;;;8.53;1.83;;;8.80;99.90;;;;;;5046083;28;20459;-71
2023/12/26 02:54:36;;;;;;;6.97;1.33;;;8.90;99.90;;;;;;5046045;28;20481;-71
2023/12/26 02:57:05;;;;;;;7.13;0.97;;;8.80;99.90;;;;;;5046888;28;21204;-72
2023/12/26 02:59:34;;;;;;;7.00;1.20;;;8.80;99.90;;;;;;5046655;28;20448;-75
2023/12/26 03:02:02;;;;;;;7.90;1.43;;;8.70;99.90;;;;;;5046718;28;20467;-71
2023/12/26 03:04:30;;;;;;;8.90;1.40;;;8.70;99.90;;;;;;5046628;28;20449;-70
2023/12/26 03:06:58;;;;;;;7.67;1.40;;;8.70;99.90;;;;;;5046575;28;20825;-70
2023/12/26 03:09:26;;;;;;;7.37;1.60;;;8.60;99.90;;;;;;5046740;28;20477;-71
2023/12/26 03:11:54;;;;;;;7.17;1.00;;;8.60;99.90;;;;;;5045989;28;20446;-71
2023/12/26 03:14:23;;;;;;;7.20;1.00;;;8.60;99.90;;;;;;5046448;28;20518;-71
2023/12/26 03:16:52;;;;;;;7.90;1.60;;;8.50;99.90;;;;;;5046168;28;20928;-71
2023/12/26 03:19:20;;;;;;;9.80;1.10;;;8.40;99.90;;;;;;5046345;28;20555;-71
2023/12/26 03:21:48;;;;;;;6.30;1.17;;;8.40;99.90;;;;;;5046866;28;21053;-71
2023/12/26 03:24:16;;;;;;;7.60;1.47;;;8.40;99.90;;;;;;5046554;28;20479;-71
2023/12/26 03:26:44;;;;;;;6.40;1.00;;;8.40;99.90;;;;;;5046799;28;20565;-71
2023/12/26 03:29:13;;;;;;;7.60;1.13;;;8.30;99.90;;;;;;5045330;28;20562;-70
2023/12/26 03:31:43;;;;;;;6.80;1.20;;;8.40;99.90;;;;;;5046010;28;20453;-71
2023/12/26 03:34:13;;;;;;;6.30;1.00;;;8.50;99.90;;;;;;5046102;28;20519;-71
2023/12/26 03:36:45;;;;;;;6.87;1.20;;;8.50;99.90;;;;;;5045542;28;20582;-70
2023/12/26 03:39:13;;;;;;;6.40;0.80;;;8.60;99.90;;;;;;5046536;28;20479;-71
2023/12/26 03:41:44;;;;;;;9.03;1.40;;;8.70;99.90;;;;;;5045657;28;20485;-71
2023/12/26 03:44:12;;;;;;;7.40;1.30;;;8.70;99.90;;;;;;5045625;28;20543;-72
2023/12/26 03:46:40;;;;;;;6.80;1.20;;;8.70;99.90;;;;;;5044890;28;20945;-71
2023/12/26 03:49:08;;;;;;;8.13;1.17;;;8.80;99.90;;;;;;5048937;28;20477;-71
2023/12/26 03:51:38;;;;;;;7.23;1.03;;;8.80;99.90;;;;;;5048757;28;20452;-71
2023/12/26 03:54:06;;;;;;;6.90;1.20;;;8.80;99.90;;;;;;5049148;28;20549;-72
2023/12/26 03:56:34;;;;;;;7.57;1.20;;;8.90;99.90;;;;;;5048749;28;20518;-71
2023/12/26 03:59:03;;;;;;;7.77;1.30;;;8.90;99.90;;;;;;5049179;28;20504;-70
2023/12/26 04:01:31;;;;;;;8.07;1.53;;;8.90;99.90;;;;;;5048903;28;21217;-74
2023/12/26 04:03:59;;;;;;;6.63;1.17;;;8.80;99.90;;;;;;5049364;28;20454;-73
2023/12/26 04:06:27;;;;;;;7.90;1.43;;;8.80;99.90;;;;;;5048777;28;20442;-71
2023/12/26 04:08:56;;;;;;;7.07;1.10;;;8.80;99.90;;;;;;5049319;28;21005;-72
2023/12/26 04:11:24;;;;;;;7.17;1.30;;;8.80;99.90;;;;;;5049505;28;20454;-71
2023/12/26 04:13:52;;;;;;;7.40;1.20;;;8.90;99.90;;;;;;5051835;28;20459;-71
2023/12/26 04:16:20;;;;;;;8.30;2.27;;;8.90;99.90;;;;;;5049321;28;20489;-71
2023/12/26 04:18:48;;;;;;;7.13;1.00;;;8.90;99.90;;;;;;5050153;28;20484;-72
2023/12/26 04:21:19;;;;;;;7.13;1.30;;;8.90;99.90;;;;;;5049617;28;20450;-70
2023/12/26 04:23:47;;;;;;;6.67;1.07;;;8.90;99.90;;;;;;5050009;28;20503;-70
2023/12/26 04:26:18;;;;;;;7.33;0.80;;;9.00;99.90;;;;;;5049210;28;20505;-72
2023/12/26 04:28:46;;;;;;;7.70;1.13;;;9.00;99.90;;;;;;5049073;28;20559;-71
2023/12/26 04:31:14;;;;;;;7.03;1.37;;;8.90;99.90;;;;;;5049202;28;21258;-71
2023/12/26 04:33:42;;;;;;;6.90;1.30;;;8.90;99.90;;;;;;5049356;28;20804;-70
2023/12/26 04:36:10;;;;;;;7.03;1.20;;;9.00;99.90;;;;;;5048708;28;20494;-71
2023/12/26 04:38:38;;;;;;;9.43;1.60;;;8.90;99.90;;;;;;5049025;28;21053;-71
2023/12/26 04:41:11;;;;;;;7.20;0.87;;;8.90;99.90;;;;;;5049378;28;20446;-70
2023/12/26 04:43:40;;;;;;;9.53;1.20;;;9.00;99.90;;;;;;5048989;28;20503;-71
2023/12/26 04:46:08;;;;;;;9.63;1.10;;;9.00;99.90;;;;;;5048959;28;20446;-70
2023/12/26 04:48:38;;;;;;;6.53;1.10;;;9.00;99.90;;;;;;5049299;28;20473;-70
2023/12/26 04:51:06;;;;;;;8.40;1.50;;;9.00;99.90;;;;;;5049335;28;20445;-71
2023/12/26 04:53:34;;;;;;;7.80;1.30;;;9.20;99.90;;;;;;5049230;28;21194;-71
2023/12/26 04:56:02;;;;;;;9.07;1.50;;;9.20;99.90;;;;;;5048470;28;20492;-70
2023/12/26 04:58:30;;;;;;;7.13;1.40;;;9.10;99.90;;;;;;5048565;28;20546;-70
2023/12/26 05:01:00;;;;;;;7.80;1.37;;;9.10;99.90;;;;;;5049117;28;20453;-70
2023/12/26 05:03:28;;;;;;;9.83;1.60;;;9.20;99.90;;;;;;5048461;28;20454;-70
2023/12/26 05:05:56;;;;;;;7.20;1.10;;;9.20;99.90;;;;;;5047183;28;20508;-70
2023/12/26 05:08:25;;;;;;;10.13;1.57;;;9.20;99.90;;;;;;5048581;28;20462;-70
2023/12/26 05:10:53;;;;;;;6.90;1.40;;;9.20;99.90;;;;;;5048649;28;20503;-70
2023/12/26 05:13:21;;;;;;;10.80;1.93;;;9.30;99.90;;;;;;5048329;28;20489;-71
2023/12/26 05:15:50;;;;;;;8.40;1.13;;;9.30;99.90;;;;;;5048280;28;20583;-71
2023/12/26 05:18:19;;;;;;;7.93;1.10;;;9.30;99.90;;;;;;5048427;28;20974;-71
2023/12/26 05:20:48;;;;;;;11.23;1.40;;;9.40;99.90;;;;;;5048632;28;20454;-71
2023/12/26 05:23:16;;;;;;;7.23;1.53;;;9.40;99.90;;;;;;5048935;28;20792;-70
2023/12/26 05:25:44;;;;;;;8.50;1.33;;;9.40;99.90;;;;;;5048128;28;20530;-71
2023/12/26 05:28:12;;;;;;;8.30;1.30;;;9.40;99.90;;;;;;5048323;28;20462;-70
2023/12/26 05:30:39;;;;;;;7.43;1.57;;;9.30;99.90;;;;;;5048287;28;20561;-71
2023/12/26 05:33:08;;;;;;;8.43;1.40;;;9.30;99.90;;;;;;5048256;28;20477;-70
2023/12/26 05:35:38;;;;;;;9.00;3.33;;;9.30;99.90;;;;;;5047827;28;20524;-70
2023/12/26 05:38:06;;;;;;;8.03;1.40;;;9.20;99.90;;;;;;5048229;28;20467;-70
2023/12/26 05:40:34;;;;;;;7.30;1.30;;;9.20;99.90;;;;;;5048412;28;20493;-71
2023/12/26 05:43:02;;;;;;;8.33;1.23;;;9.10;99.90;;;;;;5047909;28;20948;-70
2023/12/26 05:45:32;;;;;;;9.40;1.73;;;9.10;99.90;;;;;;5047822;28;21002;-70
2023/12/26 05:48:00;;;;;;;8.33;1.03;;;9.10;99.90;;;;;;5048092;28;20464;-71
2023/12/26 05:50:28;;;;;;;7.70;1.73;;;9.20;99.90;;;;;;5048305;28;20536;-70
2023/12/26 05:52:58;;;;;;;10.10;1.80;;;9.10;99.90;;;;;;5049423;28;20500;-71
2023/12/26 05:55:26;;;;;;;7.93;1.23;;;9.20;99.90;;;;;;5049470;28;20473;-71
2023/12/26 05:57:54;;;;;;;8.27;1.33;;;9.20;99.90;;;;;;5047823;28;20483;-72
2023/12/26 06:00:22;;;;;;;7.93;1.50;;;9.20;99.90;;;;;;5042726;28;20900;-72
2023/12/26 06:02:50;;;;;;;8.07;1.73;;;9.30;99.90;;;;;;5045627;28;20480;-73
2023/12/26 06:05:18;;;;;;;8.30;1.70;;;9.20;99.90;;;;;;5045761;28;20460;-71
2023/12/26 06:07:46;;;;;;;8.07;1.00;;;9.20;99.90;;;;;;5047833;28;20474;-71
2023/12/26 06:10:16;;;;;;;7.47;1.50;;;9.30;99.90;;;;;;5047278;28;20454;-71
2023/12/26 06:12:49;;;;;;;10.90;1.50;;;9.30;99.90;;;;;;5046967;28;20452;-71
2023/12/26 06:15:17;;;;;;;8.17;1.23;;;9.30;99.90;;;;;;5047079;28;20509;-72
2023/12/26 06:17:48;;;;;;;7.93;1.30;;;9.30;99.90;;;;;;5047084;28;21007;-71
2023/12/26 06:20:17;;;;;;;9.40;1.53;;;9.30;99.90;;;;;;5047676;28;20852;-72
2023/12/26 06:22:45;;;;;;;8.20;1.40;;;9.30;99.90;;;;;;5047544;28;20454;-72
2023/12/26 06:25:13;;;;;;;9.30;1.67;;;9.30;99.90;;;;;;5047383;28;20454;-71
2023/12/26 06:27:42;;;;;;;7.40;1.17;;;9.30;99.90;;;;;;5047135;28;20489;-72
2023/12/26 06:30:11;;;;;;;8.40;1.30;;;9.30;99.90;;;;;;5047604;28;20456;-71
2023/12/26 06:32:40;;;;;;;8.00;1.40;;;9.40;99.90;;;;;;5047877;28;20567;-70
2023/12/26 06:35:08;;;;;;;10.53;1.37;;;9.40;99.90;;;;;;5046337;28;20446;-71
2023/12/26 06:37:36;;;;;;;10.23;1.13;;;9.40;99.90;;;;;;5047004;28;20576;-70
2023/12/26 06:40:06;;;;;;;12.00;1.43;;;9.40;99.90;;;;;;5046987;28;20525;-71
2023/12/26 06:42:34;;;;;;;12.60;1.80;;;9.50;99.90;;;;;;5047306;28;20788;-72
2023/12/26 06:45:03;;;;;;;12.20;1.60;;;9.40;99.90;;;;;;5046740;28;21094;-70
2023/12/26 06:47:32;;;;;;;8.17;1.77;;;9.30;99.90;;;;;;5047146;28;20484;-71
2023/12/26 06:50:00;;;;;;;8.00;1.30;;;9.30;99.90;;;;;;5046999;28;20458;-70
2023/12/26 06:52:28;;;;;;;9.80;1.83;;;9.30;99.90;;;;;;5047052;28;20882;-71
2023/12/26 06:54:56;;;;;;;8.80;1.50;;;9.30;99.90;;;;;;5046093;28;20471;-71
2023/12/26 06:57:24;;;;;;;10.40;2.50;;;9.30;99.90;;;;;;5046471;28;20489;-71
2023/12/26 06:59:53;;;;;;;8.17;1.47;;;9.30;99.90;;;;;;5046299;28;20444;-71
2023/12/26 07:02:22;;;;;;;6.87;1.27;;;9.30;99.90;;;;;;5046939;28;20470;-70
2023/12/26 07:04:51;;;;;;;11.03;1.60;;;9.20;99.90;;;;;;5046347;28;20457;-71
2023/12/26 07:07:19;;;;;;;8.07;1.40;;;9.20;99.90;;;;;;5046552;28;20541;-70
2023/12/26 07:09:48;;;;;;;8.10;1.67;;;9.30;99.90;;;;;;5046973;28;20474;-70
2023/12/26 07:12:16;;;;;;;8.10;1.50;;;9.20;99.90;;;;;;5046673;28;20453;-70
2023/12/26 07:14:45;;;;;;;8.43;1.43;;;9.20;99.90;;;;;;5045691;28;20450;-72
2023/12/26 07:17:13;;;;;;;10.20;2.33;;;9.10;99.90;;;;;;5046478;28;20476;-72
2023/12/26 07:19:42;;;;;;;8.60;1.40;;;9.10;99.90;;;;;;5046346;28;20449;-73
2023/12/26 07:22:10;;;;;;;8.13;1.47;;;9.00;99.90;;;;;;5046152;28;21039;-72
2023/12/26 07:24:38;;;;;;;11.10;2.17;;;9.00;99.90;;;;;;5046577;28;21012;-72
2023/12/26 07:27:06;;;;;;;10.53;1.60;;;9.00;99.90;;;;;;5046860;28;20449;-70
2023/12/26 07:29:34;;;;;;;7.77;1.50;;;9.00;99.90;;;;;;5046612;28;20442;-71
2023/12/26 07:32:03;;;;;;;7.63;1.77;;;9.00;99.90;;;;;;5046586;28;20441;-71
2023/12/26 07:34:31;;;;;;;8.90;1.77;;;9.00;99.90;;;;;;5046745;28;20864;-72
2023/12/26 07:37:00;;;;;;;8.20;1.37;;;8.90;99.90;;;;;;5046621;28;20560;-72
2023/12/26 07:39:28;;;;;;;9.20;1.30;;;8.90;99.90;;;;;;5046402;28;20458;-71
2023/12/26 07:42:00;;;;;;;9.60;1.60;;;8.90;99.90;;;;;;5046376;28;20461;-71
2023/12/26 07:44:28;;;;;;;8.00;1.57;;;8.90;99.90;;;;;;5046279;28;20453;-70
2023/12/26 07:46:56;;;;;;;7.53;1.40;;;8.90;99.90;;;;;;5045893;28;20531;-70
2023/12/26 07:49:24;;;;;;;8.50;1.40;;;8.90;99.90;;;;;;5046491;28;20462;-70
2023/12/26 07:51:52;;;;;;;9.53;1.60;;;8.90;99.90;;;;;;5046173;28;20786;-70
2023/12/26 07:54:24;;;;;;;9.00;1.67;;;8.90;99.90;;;;;;5046278;28;20932;-71
2023/12/26 07:56:52;;;;;;;10.00;1.70;;;9.00;99.90;;;;;;5045497;28;20446;-71
2023/12/26 07:59:20;;;;;;;10.10;1.60;;;8.90;99.90;;;;;;5045803;28;21106;-71
2023/12/26 08:01:48;;;;;;;7.27;1.30;;;9.00;99.90;;;;;;5045990;28;20489;-71
2023/12/26 08:04:16;;;;;;;8.77;1.80;;;9.00;99.90;;;;;;5046537;28;20443;-72
2023/12/26 08:06:44;;;;;;;9.67;1.50;;;9.00;99.90;;;;;;5046103;28;20452;-73
2023/12/26 08:09:12;;;;;;;10.70;2.13;;;9.10;99.90;;;;;;5046463;28;20487;-73
2023/12/26 08:11:41;;;;;;;8.33;1.40;;;9.10;99.90;;;;;;5046430;28;20447;-72
2023/12/26 08:14:09;;;;;;;10.47;1.53;;;9.10;99.90;;;;;;5046242;28;20482;-70
2023/12/26 08:16:37;;;;;;;11.80;1.67;;;9.10;99.90;;;;;;5045949;28;20534;-69
2023/12/26 08:19:05;;;;;;;7.93;1.53;;;9.20;99.90;;;;;;5046060;28;20569;-71
2023/12/26 08:21:33;;;;;;;11.23;2.23;;;9.30;99.90;;;;;;5046360;28;20933;-70
2023/12/26 08:24:01;;;;;;;11.70;1.77;;;9.30;99.90;;;;;;5046004;28;20530;-71
2023/12/26 08:26:32;;;;;;;10.93;1.70;;;9.30;99.90;;;;;;5045174;28;20961;-70
2023/12/26 08:29:02;;;;;;;8.30;1.70;;;9.30;99.90;;;;;;5045752;28;20472;-73
2023/12/26 08:31:30;;;;;;;9.10;1.67;;;9.30;99.90;;;;;;5045018;28;20482;-71
2023/12/26 08:33:58;;;;;;;9.83;1.67;;;9.40;99.90;;;;;;5041317;28;20459;-71
2023/12/26 08:36:26;;;;;;;8.87;1.27;;;9.50;99.90;;;;;;5051025;28;20442;-71
2023/12/26 08:38:54;;;;;;;7.50;1.50;;;9.60;99.90;;;;;;5056429;28;20501;-72
2023/12/26 08:41:22;;;;;;;7.77;1.20;;;9.60;99.90;;;;;;5048639;28;20446;-71
2023/12/26 08:43:50;;;;;;;6.70;1.17;;;9.60;99.90;;;;;;5048719;28;20461;-71
2023/12/26 08:46:20;;;;;;;11.53;1.50;;;9.60;99.90;;;;;;5048883;28;20451;-69
2023/12/26 08:48:48;;;;;;;9.53;1.50;;;9.70;99.90;;;;;;5049007;28;20489;-70
2023/12/26 08:51:17;;;;;;;9.20;2.00;;;9.70;99.90;;;;;;5049061;28;20447;-69
2023/12/26 08:53:46;;;;;;;7.37;1.30;;;9.80;99.90;;;;;;5049302;28;20458;-72
2023/12/26 08:56:17;;;;;;;8.93;1.90;;;9.80;99.90;;;;;;5048978;28;20447;-71
2023/12/26 08:58:45;;;;;;;8.70;1.80;;;9.80;99.90;;;;;;5048739;28;20503;-72
2023/12/26 09:01:14;;;;;;;9.23;1.43;;;10.00;99.90;;;;;;5048981;28;21043;-72
2023/12/26 09:03:42;;;;;;;8.07;1.53;;;10.00;99.90;;;;;;5048624;28;20458;-69
2023/12/26 09:06:11;;;;;;;10.80;1.50;;;10.10;99.90;;;;;;5048459;28;20455;-70
2023/12/26 09:08:40;;;;;;;7.90;1.27;;;10.00;99.90;;;;;;5044984;28;20464;-71
2023/12/26 09:11:09;;;;;;;7.67;1.60;;;10.00;99.90;;;;;;5044980;28;20520;-69
2023/12/26 09:13:37;;;;;;;7.30;1.40;;;10.00;99.90;;;;;;5048158;28;20454;-70
2023/12/26 09:16:05;;;;;;;9.77;1.80;;;10.10;99.90;;;;;;5047820;28;21221;-69
2023/12/26 09:18:33;;;;;;;9.37;2.00;;;10.10;99.90;;;;;;5047692;28;21325;-67
2023/12/26 09:21:02;;;;;;;12.70;1.27;;;10.10;99.90;;;;;;5048642;28;20459;-72
2023/12/26 09:23:31;;;;;;;7.60;1.40;;;10.10;99.90;;;;;;5048286;28;21102;-68
2023/12/26 09:26:02;;;;;;;7.10;1.40;;;10.10;99.90;;;;;;5047427;28;20513;-71
2023/12/26 09:28:31;;;;;;;8.53;2.10;;;10.20;99.90;;;;;;5047619;28;20470;-68
2023/12/26 09:30:59;;;;;;;10.30;2.00;;;10.30;99.90;;;;;;5047674;28;20824;-70
2023/12/26 09:33:28;;;;;;;9.53;1.60;;;10.30;99.90;;;;;;5046996;28;20450;-68
2023/12/26 09:35:56;;;;;;;8.03;1.47;;;10.30;99.90;;;;;;5047021;28;20531;-69
2023/12/26 09:38:25;;;;;;;11.03;1.70;;;10.40;99.90;;;;;;5047422;28;20491;-71
2023/12/26 09:40:53;;;;;;;10.30;1.40;;;10.50;99.90;;;;;;5047310;28;21069;-71
2023/12/26 09:43:21;;;;;;;10.00;1.40;;;10.50;99.90;;;;;;5048097;28;20591;-71
2023/12/26 09:45:50;;;;;;;7.40;1.60;;;10.60;99.90;;;;;;5047304;28;20598;-71
2023/12/26 09:48:18;;;;;;;11.17;1.47;;;10.60;99.90;;;;;;5047703;28;20467;-68
2023/12/26 09:50:47;;;;;;;9.40;1.50;;;10.70;99.90;;;;;;5040588;28;20446;-69
2023/12/26 09:53:20;;;;;;;9.03;1.13;;;10.70;99.90;;;;;;5043666;28;20442;-73
2023/12/26 09:55:50;;;;;;;8.57;1.50;;;10.80;99.90;;;;;;5038096;28;20472;-70
2023/12/26 09:58:21;;;;;;;8.13;1.53;;;10.70;99.90;;;;;;5047462;28;20484;-69
2023/12/26 10:00:51;;;;;;;10.60;1.57;;;10.70;99.90;;;;;;5047435;28;20468;-71
2023/12/26 10:03:19;;;;;;;7.53;1.30;;;10.80;99.90;;;;;;5047459;28;20558;-71
2023/12/26 10:05:49;;;;;;;9.27;1.30;;;10.80;99.90;;;;;;5047108;28;20468;-69
2023/12/26 10:08:17;;;;;;;8.20;1.50;;;10.90;99.90;;;;;;5045524;28;20463;-67
2023/12/26 10:10:45;;;;;;;10.33;2.50;;;10.90;99.90;;;;;;5041030;28;20528;-72
2023/12/26 10:13:15;;;;;;;11.70;1.67;;;11.00;99.90;;;;;;5036253;28;20483;-69
2023/12/26 10:15:43;;;;;;;9.10;2.60;;;11.00;99.90;;;;;;5036871;28;20540;-69
2023/12/26 10:18:11;;;;;;;6.77;1.30;;;11.10;99.90;;;;;;5037705;28;20550;-69
2023/12/26 10:20:40;;;;;;;6.03;0.90;;;11.10;99.90;;;;;;5045239;28;20476;-70
2023/12/26 10:23:08;;;;;;;8.00;1.73;;;11.10;99.90;;;;;;5039386;28;20444;-70
2023/12/26 10:25:36;;;;;;;9.53;1.30;;;11.00;99.90;;;;;;5047283;28;20929;-70
2023/12/26 10:28:05;;;;;;;7.67;1.40;;;11.00;99.90;;;;;;5043924;28;20464;-73
2023/12/26 10:30:34;;;;;;;7.90;1.60;;;11.00;99.90;;;;;;5038480;28;20447;-71
2023/12/26 10:33:06;;;;;;;6.97;1.40;;;11.00;99.90;;;;;;5041382;28;20442;-71
2023/12/26 10:35:34;;;;;;;9.70;1.73;;;11.10;99.90;;;;;;5039670;28;20474;-73
2023/12/26 10:38:02;;;;;;;7.27;1.10;;;11.10;99.90;;;;;;5040884;28;20463;-71
2023/12/26 10:40:30;;;;;;;7.20;1.30;;;11.20;99.90;;;;;;5040310;28;20534;-70
2023/12/26 10:43:01;;;;;;;8.33;2.10;;;11.20;99.90;;;;;;5043164;28;20452;-70
2023/12/26 10:45:30;;;;;;;7.60;1.13;;;11.20;99.90;;;;;;5045930;28;20446;-73
2023/12/26 10:48:02;;;;;;;6.43;1.00;;;11.20;99.90;;;;;;5045398;28;20592;-67
2023/12/26 10:50:33;;;;;;;7.43;1.30;;;11.30;99.90;;;;;;5041951;28;20437;-73
2023/12/26 10:53:15;;;;;;;7.50;1.10;;;11.30;99.90;;;;;;5040580;28;20436;-68
2023/12/26 10:55:47;;;;;;;7.50;1.00;;;11.30;99.90;;;;;;5039069;28;20438;-69
2023/12/26 10:58:20;;;;;;;9.00;1.20;;;11.20;99.90;;;;;;5041614;28;21034;-71
2023/12/26 11:00:51;;;;;;;8.70;1.00;;;11.30;99.90;;;;;;5041748;28;20546;-72
2023/12/26 13:53:17;;;;;;;6.43;0.93;;;10.80;99.90;;;;;;5047074;28;20440;-71
2023/12/26 13:55:45;;;;;;;6.50;1.20;;;10.70;99.90;;;;;;5047283;28;20432;-70
2023/12/26 13:58:12;;;;;;;6.60;0.90;;;10.80;99.90;;;;;;5044057;28;20526;-70
2023/12/26 14:00:40;;;;;;;6.00;0.80;;;10.80;99.90;;;;;;5047917;28;20485;-69
2023/12/26 14:03:09;;;;;;;7.80;1.80;;;10.90;99.90;;;;;;5047628;28;20452;-72
2023/12/26 14:05:37;;;;;;;6.67;1.00;;;10.90;99.90;;;;;;5045136;28;20451;-71
2023/12/26 14:08:05;;;;;;;5.90;0.50;;;10.90;99.90;;;;;;5047512;28;20470;-71
2023/12/26 14:10:34;;;;;;;6.40;1.00;;;10.90;99.90;;;;;;5047765;28;20527;-73
2023/12/26 14:13:02;;;;;;;6.00;0.67;;;10.80;99.90;;;;;;5047339;28;20554;-70
2023/12/26 14:15:30;;;;;;;6.43;0.80;;;10.70;99.90;;;;;;5042042;28;20488;-72
2023/12/26 14:17:58;;;;;;;6.87;0.70;;;10.70;99.90;;;;;;5041088;28;20476;-69
2023/12/26 14:20:26;;;;;;;6.90;1.20;;;10.70;99.90;;;;;;5042802;28;20486;-67
2023/12/26 14:22:54;;;;;;;6.20;0.50;;;10.70;99.90;;;;;;5035528;28;20558;-69
2023/12/26 14:25:23;;;;;;;6.77;0.70;;;10.70;99.90;;;;;;5037588;28;20557;-70
2023/12/26 14:27:52;;;;;;;5.80;1.00;;;10.60;99.90;;;;;;5038680;28;20466;-70
2023/12/26 14:30:20;;;;;;;5.50;0.50;;;10.70;99.90;;;;;;5035789;28;20468;-71
2023/12/26 14:32:48;;;;;;;6.30;0.70;;;10.70;99.90;;;;;;5036128;28;20447;-71
2023/12/26 14:35:16;;;;;;;7.30;0.80;;;10.70;99.90;;;;;;5039968;28;20444;-73
2023/12/26 14:37:45;;;;;;;6.77;0.70;;;10.70;99.90;;;;;;5040428;28;20515;-70
2023/12/26 14:40:13;;;;;;;6.50;0.70;;;10.70;99.90;;;;;;5042014;28;20515;-72
2023/12/26 14:42:41;;;;;;;6.77;0.70;;;10.70;99.90;;;;;;5039382;28;20473;-69
2023/12/26 14:45:11;;;;;;;5.67;0.60;;;10.70;99.90;;;;;;5040158;28;20429;-72
2023/12/26 14:47:39;;;;;;;5.80;0.60;;;10.70;99.90;;;;;;5040523;28;20456;-71
2023/12/26 14:50:07;;;;;;;6.30;0.50;;;10.70;99.90;;;;;;5040045;28;20678;-70
2023/12/26 14:52:35;;;;;;;5.80;0.60;;;10.60;99.90;;;;;;5039607;28;20532;-69
2023/12/26 14:55:03;;;;;;;5.70;0.40;;;10.60;99.90;;;;;;5040309;28;20517;-70
2023/12/26 14:57:31;;;;;;;6.00;0.60;;;10.50;99.90;;;;;;5038229;28;20467;-71
2023/12/26 14:59:59;;;;;;;6.00;0.60;;;10.50;99.90;;;;;;5037557;28;20488;-71
2023/12/26 15:02:33;;;;;;;5.90;0.50;;;10.50;99.90;;;;;;5039513;28;20437;-69
2023/12/26 15:05:05;;;;;;;5.80;0.80;;;10.50;99.90;;;;;;5038889;28;20521;-72
2023/12/26 15:07:33;;;;;;;5.90;0.70;;;10.50;99.90;;;;;;5042668;28;20491;-71
2023/12/26 15:10:01;;;;;;;6.20;0.70;;;10.40;99.90;;;;;;5042458;28;21028;-73
2023/12/26 15:12:30;;;;;;;5.83;0.50;;;10.50;99.90;;;;;;5042603;28;20448;-69
2023/12/26 15:14:58;;;;;;;7.47;0.70;;;10.50;99.90;;;;;;5040658;28;20439;-70
2023/12/26 15:17:26;;;;;;;5.90;0.47;;;10.40;99.90;;;;;;5038758;28;20846;-70
2023/12/26 15:19:55;;;;;;;5.73;0.50;;;10.40;99.90;;;;;;5038114;28;20531;-69
2023/12/26 15:22:23;;;;;;;5.70;0.60;;;10.40;99.90;;;;;;5038727;28;20456;-71
2023/12/26 15:24:51;;;;;;;7.13;0.90;;;10.40;99.90;;;;;;5041083;28;20462;-69
2023/12/26 15:27:20;;;;;;;5.80;0.60;;;10.40;99.90;;;;;;5039039;28;20510;-71
2023/12/26 15:29:48;;;;;;;7.40;0.63;;;10.40;99.90;;;;;;5036224;28;20455;-70
2023/12/26 15:32:16;;;;;;;6.07;0.83;;;10.40;99.90;;;;;;5040759;28;20772;-73
2023/12/26 15:34:45;;;;;;;5.70;0.60;;;10.40;99.90;;;;;;5036236;28;20460;-71
2023/12/26 15:37:14;;;;;;;7.03;0.90;;;10.30;99.90;;;;;;5040743;28;20432;-71
2023/12/26 15:39:42;;;;;;;6.20;0.83;;;10.30;99.90;;;;;;5040494;28;20498;-70
2023/12/26 15:42:10;;;;;;;5.90;0.63;;;10.30;99.90;;;;;;5038068;28;21000;-70
2023/12/26 15:44:40;;;;;;;6.70;0.80;;;10.30;99.90;;;;;;5041218;28;20447;-72
2023/12/26 15:47:08;;;;;;;6.60;0.87;;;10.30;99.90;;;;;;5042272;28;20482;-70
2023/12/26 15:49:37;;;;;;;6.20;0.70;;;10.30;99.90;;;;;;5042184;28;20450;-70